CYTL

Big Trout Lake Airport

Big Trout Lake, Ontario, Canada
METAR CYTL 131120Z AUTO 21006KT 9SM SCT018 BKN023 BKN060 OVC073 M04/M04 A2966 RMK SLP063
Observed Flight Rules
Dec-13 @ 11:20 UTC (15 minutes ago) Marginal Visual Flight Rules
Wind Visibility Clouds
210° at 6 knots 9 miles
  • Scattered at 1,800' AGL
  • Broken at 2,300' AGL
  • Broken at 6,000' AGL
  • Overcast at 7,300' AGL
Temperatures Readings
Current -4°C / 25°F
Dewpoint -4°C / 25°F
Humidity 100%
Altimeter 29.66" Hg
Pressure 1006.3 hPa
Elevation 224
METAR CYTL 131120Z AUTO 21006KT 9SM SCT018 BKN023 BKN060 OVC073 M04/M04 A2966 RMK SLP063
Observed Flight Rules
Dec-13 @ 11:20 UTC
(15 minutes ago)
MVFR
Wind Visibility
210° at 6 knots 9 miles
Clouds
  • Scattered at 1,800' AGL
  • Broken at 2,300' AGL
  • Broken at 6,000' AGL
  • Overcast at 7,300' AGL
Temperature Dewpoint
-4°C / 25°F -4°C / 25°F
Humidity Altimeter Pressure
100% 29.66" Hg 1006.3 hPa